• Join FlightAware (Why Join?)
  • Login
  • US Flag 
11:39AM EDT


 

Airport Tracker/Info


-or-


 

Live Flight TrackerFlight Track Log ✈ SWA2236 ✈ 11-Jul-2013 ✈ KLAS - KJAX

Flight Track Log - Related Links

Times and Time Zones

All times are in EDT time to prevent confusion due to time zone crossing. See the SWA2236 flight status page for this flight to view local times or setup timezone preferences in your user account.

Time Position Orientation Groundspeed Altitude Reporting Facility
EDT Latitude Longitude Course Direction KTS MPH feet Rate Location/Type
02:47PM 36.0775 -115.1144 91° East 151 174 3,200  Level Los Angeles Center
02:48PM 36.0764 -115.0511 91° East 222 255 4,300 1,800 Climbing Los Angeles Center
02:49PM 36.0756 -114.9789 91° East 232 267 6,200 2,580 Climbing Los Angeles Center
02:50PM 36.0664 -114.8756 96° East 286 329 9,100 2,460 Climbing Los Angeles Center
02:51PM 36.0503 -114.7700 101° East 307 353 11,300 2,220 Climbing Los Angeles Center
02:52PM 36.0325 -114.6458 100° East 353 406 13,800 2,760 Climbing Los Angeles Center
02:53PM 36.0156 -114.5281 100° East 356 410 17,100 2,280 Climbing Los Angeles Center
02:54PM 35.9972 -114.4058 100° East 358 412 18,600 1,680 Climbing Los Angeles Center
02:55PM 35.9733 -114.2469 100° East 385 443 20,600 1,980 Climbing Los Angeles Center
02:56PM 35.9600 -114.1067 97° East 405 466 22,700 1,800 Climbing Los Angeles Center
02:57PM 35.9625 -113.9611 89° East 419 482 24,400 1,500 Climbing Los Angeles Center
02:58PM 35.9617 -113.8117 90° East 429 494 25,900 1,200 Climbing Los Angeles Center
02:59PM 35.9592 -113.6897 91° East 440 506 27,000 1,260 Climbing Los Angeles Center
03:00PM 35.9578 -113.4975 90° East 456 525 28,600 1,320 Climbing Los Angeles Center
03:01PM 35.9558 -113.3361 91° East 466 536 29,800 1,440 Climbing Los Angeles Center
03:02PM 35.9539 -113.1417 91° East 471 542 31,600 1,620 Climbing Los Angeles Center
03:03PM 35.9503 -112.9789 92° East 474 545 33,200 1,260 Climbing Los Angeles Center
03:04PM 35.9283 -112.8556 102° East 465 535 34,300 1,200 Climbing Los Angeles Center
03:05PM 35.8875 -112.6731 105° East 459 528 35,700 1,260 Climbing Los Angeles Center
03:06PM 35.8442 -112.5267 110° East 457 526 37,000 600 Climbing Los Angeles Center
03:07PM 35.8036 -112.3819 109° East 449 517 37,000  Level Los Angeles Center
03:08PM 35.7597 -112.2383 111° Southeast 448 516 37,000  Level Los Angeles Center
03:09PM 35.7083 -112.0669 110° East 446 513 37,000  Level Los Angeles Center
03:10PM 35.6850 -111.9178 101° East 443 510 37,000  Level Los Angeles Center
03:11PM 35.6742 -111.7667 95° East 444 511 37,000  Level Los Angeles Center
03:12PM 35.6628 -111.6172 95° East 442 509 37,000  Level Albuquerque Center
03:14PM 35.6522 -111.4672 95° East 441 507 37,000  Level Albuquerque Center
03:15PM 35.6403 -111.3069 95° East 442 509 37,000  Level Albuquerque Center
03:16PM 35.6275 -111.1381 95° East 444 511 37,000  Level Albuquerque Center
03:17PM 35.6186 -110.9947 94° East 443 510 37,000  Level Albuquerque Center
03:18PM 35.6044 -110.8256 96° East 443 510 37,000  Level Albuquerque Center
03:19PM 35.5939 -110.6819 95° East 443 510 37,000  Level Albuquerque Center
03:20PM 35.5811 -110.5128 95° East 444 511 37,000  Level Albuquerque Center
03:21PM 35.5714 -110.3681 95° East 445 512 37,000  Level Albuquerque Center
03:22PM 35.5583 -110.2214 96° East 449 517 37,000  Level Albuquerque Center
03:23PM 35.5456 -110.0528 95° East 447 514 37,000  Level Albuquerque Center
03:24PM 35.5331 -109.9058 96° East 450 518 37,000  Level Albuquerque Center
03:25PM 35.5189 -109.7347 96° East 451 519 37,000  Level Albuquerque Center
03:26PM 35.5064 -109.5878 96° East 453 521 37,000  Level Albuquerque Center
03:27PM 35.4919 -109.4147 96° East 456 525 37,000  Level Albuquerque Center
03:28PM 35.4797 -109.2669 96° East 457 526 37,000  Level Albuquerque Center
03:29PM 35.4636 -109.0961 97° East 455 524 37,000  Level Albuquerque Center
03:30PM 35.4511 -108.9508 96° East 452 520 37,000  Level Albuquerque Center
03:31PM 35.4381 -108.8069 96° East 449 517 37,000  Level Albuquerque Center
03:32PM 35.4225 -108.6378 96° East 448 516 37,000  Level Albuquerque Center
03:33PM 35.4097 -108.4919 96° East 451 519 37,000  Level Albuquerque Center
03:34PM 35.3931 -108.3250 97° East 447 514 37,000  Level Albuquerque Center
03:35PM 35.3797 -108.1817 96° East 445 512 37,000  Level Albuquerque Center
03:36PM 35.3636 -108.0156 97° East 442 509 37,000  Level Albuquerque Center
03:37PM 35.3503 -107.8728 96° East 442 509 37,000  Level Albuquerque Center
03:38PM 35.3319 -107.7089 98° East 438 504 37,000  Level Albuquerque Center
03:39PM 35.3169 -107.5681 97° East 437 503 37,000  Level Albuquerque Center
03:40PM 35.3025 -107.4181 97° East 440 506 37,000  Level Albuquerque Center
03:41PM 35.2864 -107.2681 97° East 442 509 37,000  Level Albuquerque Center
03:42PM 35.2714 -107.1147 97° East 445 512 37,000  Level Albuquerque Center
03:43PM 35.2525 -106.9500 98° East 438 504 37,000  Level Albuquerque Center
03:44PM 35.2383 -106.8081 97° East 438 504 37,000  Level Albuquerque Center
03:45PM 35.2200 -106.6433 98° East 438 504 37,000  Level Albuquerque Center
03:46PM 35.2047 -106.5147 98° East 444 511 37,000  Level Albuquerque Center
03:47PM 35.1875 -106.3647 98° East 443 510 37,000  Level Albuquerque Center
03:48PM 35.1681 -106.1969 98° East 443 510 37,000  Level Albuquerque Center
03:50PM 35.1671 -106.0432 90° East  Level FlightAware Approximate
03:51PM 35.1325 -105.8975 90° East 443 510 37,000  Level Albuquerque Center
03:52PM 35.1147 -105.7464 98° East 445 512 37,000  Level Albuquerque Center
03:53PM 35.0936 -105.5708 98° East 444 511 37,000  Level Albuquerque Center
03:54PM 35.0756 -105.4214 98° East 442 509 37,000  Level Albuquerque Center
03:55PM 35.0569 -105.2719 99° East 442 509 37,000  Level Albuquerque Center
03:56PM 35.0383 -105.1231 99° East 440 506 37,000  Level Albuquerque Center
03:57PM 35.0214 -104.9733 98° East 441 507 37,000  Level Albuquerque Center
03:58PM 35.0017 -104.8233 99° East 443 510 37,000  Level Albuquerque Center
03:59PM 34.9819 -104.6733 99° East 445 512 37,000  Level Albuquerque Center
04:00PM 34.9628 -104.5244 99° East 444 511 37,000  Level Albuquerque Center
04:01PM 34.9428 -104.3750 99° East 446 513 37,000  Level Albuquerque Center
04:02PM 34.9200 -104.1986 99° East 451 519 37,000  Level Albuquerque Center
04:03PM 34.9008 -104.0472 99° East 452 520 37,000  Level Albuquerque Center
04:04PM 34.8808 -103.8958 99° East 453 521 37,000  Level Albuquerque Center
04:05PM 34.8606 -103.7472 99° East 447 514 37,000  Level Albuquerque Center
04:06PM 34.8403 -103.5975 99° East 447 514 37,000  Level Albuquerque Center
04:07PM 34.8203 -103.4478 99° East 446 513 37,000  Level Albuquerque Center
04:08PM 34.8011 -103.2989 99° East 444 511 37,000  Level Albuquerque Center
04:09PM 34.7753 -103.1247 100° East 445 512 37,000  Level Albuquerque Center
04:10PM 34.7536 -102.9742 100° East 448 516 37,000  Level Albuquerque Center
04:11PM 34.7322 -102.8217 100° East 452 520 37,000  Level Albuquerque Center
04:12PM 34.7097 -102.6700 100° East 453 521 37,000  Level Albuquerque Center
04:13PM 34.6875 -102.5214 100° East 457 526 37,000  Level Albuquerque Center
04:14PM 34.6664 -102.3703 100° East 457 526 37,000  Level Albuquerque Center
04:15PM 34.6472 -102.2194 99° East 455 524 37,000  Level Albuquerque Center
04:16PM 34.6389 -102.0389 93° East 452 520 37,000  Level Albuquerque Center
04:17PM 34.6339 -101.8886 92° East 451 519 37,000  Level Albuquerque Center
04:18PM 34.6242 -101.7378 94° East 451 519 37,000  Level Albuquerque Center
04:19PM 34.6147 -101.5864 94° East 452 520 37,000  Level Albuquerque Center
04:20PM 34.6058 -101.4372 94° East 451 519 37,000  Level Albuquerque Center
04:21PM 34.5964 -101.2886 94° East 448 516 37,000  Level Albuquerque Center
04:22PM 34.5858 -101.1094 94° East 446 513 37,000  Level Albuquerque Center
04:23PM 34.5767 -100.9603 94° East 447 514 37,000  Level Albuquerque Center
04:24PM 34.5500 -100.8147 103° East 448 516 37,000  Level Albuquerque Center
04:25PM 34.5256 -100.6675 101° East 446 513 37,000  Level Albuquerque Center
04:26PM 34.5008 -100.5197 101° East 449 517 37,000  Level Albuquerque Center
04:28PM 34.4756 -100.3714 102° East 451 519 37,000  Level Albuquerque Center
04:29PM 34.4489 -100.2214 102° East 454 522 37,000  Level Albuquerque Center
04:29PM 34.4283 -100.1000 102° East 449 517 37,000  Level Fort Worth Center
04:30PM 34.4022 -99.9506 102° East 449 517 37,000  Level Fort Worth Center
04:31PM 34.3781 -99.8014 101° East 449 517 37,000  Level Fort Worth Center
04:32PM 34.3472 -99.6497 104° East 454 522 37,000  Level Fort Worth Center
04:33PM 34.3267 -99.5183 101° East 447 514 37,000  Level Fort Worth Center
04:34PM 34.2978 -99.3667 103° East 455 524 37,000  Level Fort Worth Center
04:35PM 34.2708 -99.2156 102° East 450 518 37,000  Level Fort Worth Center
04:36PM 34.2417 -99.0592 103° East 445 512 37,000  Level Fort Worth Center
04:37PM 34.2122 -98.9078 103° East 445 512 37,000  Level Fort Worth Center
04:38PM 34.1828 -98.7592 103° East 451 519 37,000  Level Fort Worth Center
04:39PM 34.1550 -98.6106 103° East 451 519 37,000  Level Fort Worth Center
04:40PM 34.1272 -98.4647 103° East 451 519 37,000  Level Fort Worth Center
04:41PM 34.0969 -98.3089 103° East 451 519 37,000  Level Fort Worth Center
04:42PM 34.0772 -98.1708 100° East 457 526 37,000  Level Fort Worth Center
04:43PM 34.0508 -98.0200 102° East 452 520 37,000  Level Fort Worth Center
04:44PM 34.0203 -97.8719 104° East 452 520 37,000  Level Fort Worth Center
04:45PM 33.9933 -97.7242 102° East 452 520 37,000  Level Fort Worth Center
04:46PM 33.9625 -97.5761 104° East 452 520 37,000  Level Fort Worth Center
04:47PM 33.9333 -97.4311 104° East 452 520 37,000 300 Level Fort Worth Center
04:48PM 33.9042 -97.2808 103° East 452 520 37,600 960 Climbing Fort Worth Center
04:49PM 33.8747 -97.1358 104° East 452 520 39,000 660 Climbing Fort Worth Center
04:50PM 33.8469 -96.9883 103° East 447 514 39,000  Level Fort Worth Center
04:51PM 33.8319 -96.8408 97° East 447 514 39,000  Level Fort Worth Center
04:52PM 33.8164 -96.6908 97° East 447 514 39,000  Level Fort Worth Center
04:53PM 33.8031 -96.5486 96° East 447 514 39,000  Level Fort Worth Center
04:54PM 33.7875 -96.4039 97° East 439 505 39,000  Level Fort Worth Center
04:55PM 33.7758 -96.2589 95° East 434 499 39,000  Level Fort Worth Center
04:56PM 33.7639 -96.1142 96° East 434 499 39,000  Level Fort Worth Center
04:57PM 33.7519 -95.9719 96° East 434 499 39,000  Level Fort Worth Center
04:58PM 33.7419 -95.8272 95° East 434 499 39,000  Level Fort Worth Center
04:59PM 33.7294 -95.6828 96° East 434 499 39,000  Level Fort Worth Center
05:00PM 33.7189 -95.5281 95° East 429 494 39,000  Level Fort Worth Center
05:01PM 33.7022 -95.3861 98° East 424 488 39,000  Level Fort Worth Center
05:02PM 33.6933 -95.2414 94° East 424 488 39,000  Level Fort Worth Center
05:03PM 33.6825 -95.0994 95° East 424 488 39,000  Level Fort Worth Center
05:04PM 33.6631 -94.9553 99° East 424 488 39,000  Level Fort Worth Center
05:05PM 33.6269 -94.8167 107° East 429 494 39,000  Level Fort Worth Center
05:06PM 33.5925 -94.6731 106° East 429 494 39,000  Level Fort Worth Center
05:07PM 33.5581 -94.5319 106° East 437 503 39,000  Level Fort Worth Center
05:08PM 33.5256 -94.3911 105° East 437 503 39,000  Level Fort Worth Center
05:09PM 33.4908 -94.2503 106° East 437 503 39,000  Level Fort Worth Center
05:10PM 33.4628 -94.1367 106° East 437 503 39,000  Level Fort Worth Center
05:11PM 33.4231 -93.9714 106° East 437 503 39,000  Level Fort Worth Center
05:12PM 33.3881 -93.8433 108° East 442 509 39,000  Level Fort Worth Center
05:13PM 33.3522 -93.6908 106° East 457 526 39,000  Level Fort Worth Center
05:14PM 33.3147 -93.5556 108° East 449 517 39,000  Level Fort Worth Center
05:15PM 33.2811 -93.4156 106° East 437 503 39,000  Level Fort Worth Center
05:16PM 33.2456 -93.2806 107° East 437 503 39,000  Level Fort Worth Center
05:17PM 33.2050 -93.1283 108° East 437 503 39,000  Level Fort Worth Center
05:18PM 33.1711 -92.9936 107° East 432 497 39,000  Level Fort Worth Center
05:19PM 33.1328 -92.8542 108° East 437 503 39,000  Level Fort Worth Center
05:20PM 33.0983 -92.7144 106° East 437 503 39,000  Level Fort Worth Center
05:22PM 33.0183 -92.4211 108° East 444 511 39,000  Level Memphis Center
05:23PM 32.9828 -92.2817 107° East 444 511 39,000  Level Memphis Center
05:24PM 32.9453 -92.1469 108° East 438 504 39,000  Level Memphis Center
05:25PM 32.9175 -92.0375 107° East 438 504 39,000  Level Memphis Center
05:26PM 32.8714 -91.8883 110° East 438 504 39,000  Level Memphis Center
05:27PM 32.8333 -91.7517 108° East 433 498 39,000  Level Memphis Center
05:28PM 32.7950 -91.6128 108° East 433 498 39,000  Level Memphis Center
05:29PM 32.7650 -91.4764 105° East 428 493 39,000  Level Memphis Center
05:30PM 32.7392 -91.3353 102° East 428 493 39,000  Level Memphis Center
05:31PM 32.7067 -91.1942 105° East 428 493 39,000  Level Memphis Center
05:32PM 32.6783 -91.0558 104° East 433 498 39,000  Level Memphis Center
05:33PM 32.6456 -90.9100 105° East 439 505 39,000  Level Memphis Center
05:34PM 32.6150 -90.7692 104° East 439 505 39,000  Level Memphis Center
05:35PM 32.5797 -90.6064 104° East 445 512 39,000  Level Memphis Center
05:36PM 32.5486 -90.4658 105° East 445 512 39,000  Level Memphis Center
05:37PM 32.5133 -90.3178 106° East 451 519 39,000  Level Memphis Center
05:38PM 32.4817 -90.1725 104° East 456 525 39,000  Level Memphis Center
05:39PM 32.4481 -90.0250 104° East 456 525 39,000  Level Memphis Center
05:40PM 32.4486 -90.0102 104° East  Level FlightAware Approximate
05:40PM 32.4164 -89.8800 104° East 456 525 39,000  Level Memphis Center
05:41PM 32.3822 -89.7325 105° East 456 525 39,000  Level Memphis Center
05:42PM 32.3481 -89.5828 105° East 456 525 39,000  Level Memphis Center
05:43PM 32.3178 -89.4453 105° East 461 531 39,000  Level Memphis Center
05:44PM 32.2853 -89.2983 105° East 467 537 39,000  Level Memphis Center
05:45PM 32.2506 -89.1489 105° East 467 537 39,000  Level Memphis Center
05:46PM 32.2136 -88.9994 106° East 472 543 39,000  Level Memphis Center
05:47PM 32.1806 -88.8503 105° East 472 543 39,000  Level Memphis Center
05:49PM 32.1067 -88.5503 106° East 478 550 39,000  Level Atlanta Center
05:50PM 32.0725 -88.3992 105° East 478 550 39,000  Level Atlanta Center
05:51PM 32.0358 -88.2478 106° East 478 550 39,000  Level Atlanta Center
05:52PM 32.0014 -88.0992 105° East 478 550 39,000  Level Atlanta Center
05:53PM 31.9644 -87.9508 106° East 478 550 39,000  Level Atlanta Center
05:54PM 31.9272 -87.7997 106° East 478 550 39,000  Level Atlanta Center
05:55PM 31.8919 -87.6517 106° East 478 550 39,000  Level Atlanta Center
05:56PM 31.8567 -87.5061 106° East 473 544 39,000  Level Atlanta Center
05:57PM 31.8208 -87.3628 106° East 462 532 39,000  Level Atlanta Center
05:58PM 31.7825 -87.2319 109° East 467 537 39,000  Level Atlanta Center
05:59PM 31.7444 -87.0867 107° East 467 537 39,000  Level Atlanta Center
06:02PM 31.6625 -86.7708 107° East 446 513 39,000  Level Jacksonville Center
06:03PM 31.6272 -86.6281 106° East 446 513 39,000  Level Jacksonville Center
06:04PM 31.5875 -86.4872 108° East 451 519 39,000  Level Jacksonville Center
06:05PM 31.5517 -86.3422 106° East 451 519 39,000  Level Jacksonville Center
06:06PM 31.5136 -86.2019 108° East 451 519 39,000  Level Jacksonville Center
06:07PM 31.4778 -86.0592 106° East 451 519 39,000  Level Jacksonville Center
06:08PM 31.4394 -85.9167 107° East 451 519 39,000  Level Jacksonville Center
06:09PM 31.4011 -85.7744 107° East 451 519 39,000  Level Jacksonville Center
06:10PM 31.3664 -85.6347 106° East 451 519 39,000  Level Jacksonville Center
06:11PM 31.3217 -85.4850 109° East 451 519 39,000  Level Jacksonville Center
06:12PM 31.2950 -85.3553 103° East 451 519 39,000  Level Jacksonville Center
06:13PM 31.2558 -85.2133 108° East 446 513 39,000  Level Jacksonville Center
06:14PM 31.2147 -85.0667 108° East 446 513 39,000 -120 Level Jacksonville Center
06:15PM 31.1731 -84.9272 109° East 446 513 38,800 -600 Descending Jacksonville Center
06:16PM 31.1378 -84.7858 106° East 446 513 37,800 -1,020 Descending Jacksonville Center
06:17PM 31.1000 -84.6467 108° East 446 513 36,800 -960 Descending Jacksonville Center
06:18PM 31.0603 -84.5053 108° East 446 513 35,900 -960 Descending Jacksonville Center
06:19PM 31.0222 -84.3664 108° East 446 513 34,900 -960 Descending Jacksonville Center
06:20PM 30.9839 -84.2303 108° East 446 513 34,000 -960 Descending Jacksonville Center
06:21PM 30.9436 -84.0867 108° East 446 513 33,000 -960 Descending Jacksonville Center
06:22PM 30.9053 -83.9483 108° East 446 513 32,100 -960 Descending Jacksonville Center
06:23PM 30.8644 -83.8075 109° East 446 513 31,100 -1,020 Descending Jacksonville Center
06:24PM 30.8258 -83.6692 108° East 446 513 30,100 -1,080 Descending Jacksonville Center
06:25PM 30.7911 -83.5333 107° East 446 513 29,000 -1,080 Descending Jacksonville Center
06:26PM 30.7519 -83.3978 109° East 441 507 28,000 -1,200 Descending Jacksonville Center
06:27PM 30.7128 -83.2672 109° East 441 507 26,700 -1,800 Descending Jacksonville Center
06:28PM 30.6756 -83.1414 109° East 423 487 24,500 -2,100 Descending Jacksonville Center
06:29PM 30.6403 -83.0158 108° East 418 481 22,500 -1,680 Descending Jacksonville Center
06:30PM 30.6089 -82.9094 109° East 404 465 21,200 -1,980 Descending Jacksonville Center
06:31PM 30.5922 -82.7889 99° East 381 438 18,600 -2,580 Descending Jacksonville Center
06:32PM 30.5836 -82.6731 95° East 369 425 16,100 -2,280 Descending Jacksonville Center
06:32PM 30.5772 -82.5717 94° East 359 413 14,500 -2,040 Descending Jacksonville Center
06:33PM 30.5497 -82.4825 110° East 347 399 12,900 -1,860 Descending Jacksonville Center
06:34PM 30.5161 -82.3789 111° Southeast 340 391 11,200 -960 Descending Jacksonville Center
06:35PM 30.4989 -82.2825 102° East 299 344 11,000 -780 Descending Jacksonville Center
06:36PM 30.4797 -82.1864 103° East 291 335 9,700 -1,560 Descending Jacksonville Center
06:37PM 30.4686 -82.0853 97° East 295 339 7,900 -1,380 Descending Jacksonville Center
06:38PM 30.4908 -81.9983 73° East 275 316 6,900 -1,020 Descending Jacksonville Center
06:39PM 30.5092 -81.9208 75° East 245 282 5,900 -1,140 Descending Jacksonville Center
06:40PM 30.5294 -81.8531 71° East 240 276 4,800 -1,020 Descending Jacksonville Center
06:41PM 30.5478 -81.7781 74° East 236 272 4,000 -420 Descending Jacksonville Center
06:42PM 30.5953 -81.7222 45° Northeast 246 283 4,000 -480 Level Jacksonville Center
06:43PM 30.6092 -81.6472 78° East 231 266 3,100 -900 Descending Jacksonville Center
06:44PM 30.6167 -81.5747 83° East 227 261 2,200 -600 Descending Jacksonville Center
06:45PM 30.5869 -81.5317 129° Southeast 180 207 2,000 -120 Descending Jacksonville Center
06:46PM 30.5475 -81.5322 181° South 185 213 2,000 -300 Level Jacksonville Center
06:47PM 30.5292 -81.5878 249° West 177 204 1,500 -660 Descending Jacksonville Center
06:48PM 30.5150 -81.6339 250° West 150 173 700 -840 Descending Jacksonville Center
06:50PM 30.4833 -81.6833 217° Southwest  Level FlightAware Approximate
06:57PM 30.4941 -81.6879 217° Southwest  Level Estimated